Ana Sayfa
METAR-TAF:

METAR-TAF

Havaalanları :

Erzurum Havalimanı

Erzurum, Türkiye

Enlem: 39-55N, Boylam: 041-16E, yükseklik: 1756 m

Güncel hava durumu gözlemi

Rapor saat 05:50 UTC de 42 dakika önce yapıldı.
Rüzgar değişken yönden 2 kt
Sıcaklık -6°C
Nem 73%
Basınç 1027 hPa
Görüş mesafesi 10 km veya daha fazla
1500 m altında bulut yok ve kümülonimbus yok

METAR: LTCE 180550Z VRB02KT CAVOK M06/M10 Q1027 NOSIG RMK RWY08R 00000KT RWY26R /////KT RWY08L 00000KT

Saat: 09:32 (06:32 UTC)

Tahmin

Rapor saat 04:40 UTC de 1 saat ve 52 dakika önce yapıldı.
Ayın 18'si saat 06 UTC'den ayın 19'si saat 06 UTC'ye kadar geçerli Tahmin
Rüzgar değişken yönden 2 kt
Görüş mesafesi 10 km veya daha fazla
1500 m altında bulut yok ve kümülonimbus yok

TAF: LTCE 180440Z 1806/1906 VRB02KT CAVOK

4.000'den fazla havaalanı için hava durumu gözlemleri ve tahminleri (METAR ve TAF raporları).

Kullanılabilir istasyonlar harita üzerinde sarı ve kırmızı noktalarla gösterilir.

İstasyonun adını görmek için fareyi noktanın üzerinde gezdirin.

Sonrasında hava gözlem ve tahminlerini görmek için tıklayın.

Haritayı değiştirmek için: yaklaştırmak için siyah artı işaretli yeşil düğmeye ve uzaklaştırmak için de eksi işaretli düğmeye hızla tıklayın; bitişik haritalar için yeşil okları kullanın.


METAR-TAF: